Time;durP1;ratioP1;P1;durP2;ratioP2;P2;SDS_P1;SDS_P2;PMS_P1;PMS_P2;Temp;Humidity;BMP_temperature;BMP_pressure;BME280_temperature;BME280_humidity;BME280_pressure;Samples;Min_cycle;Max_cycle;Signal;HPM_P1;HPM_P2
2021/11/14 00:02:15;;;;;;;194.07;65.30;;;7.90;99.90;;;;;;5077629;28;20546;-67
2021/11/14 00:04:46;;;;;;;194.80;68.85;;;7.90;99.90;;;;;;5078952;28;20035;-68
2021/11/14 00:07:13;;;;;;;194.63;67.82;;;7.90;99.90;;;;;;5096471;28;20019;-67
2021/11/14 00:09:39;;;;;;;205.57;70.28;;;7.90;99.90;;;;;;5078145;28;20028;-67
2021/11/14 00:12:06;;;;;;;184.20;64.38;;;7.90;99.90;;;;;;5077910;28;20541;-67
2021/11/14 00:14:31;;;;;;;186.43;66.18;;;7.90;99.90;;;;;;5095633;28;20031;-68
2021/11/14 00:16:57;;;;;;;207.07;73.88;;;7.90;99.90;;;;;;5095953;28;20031;-67
2021/11/14 00:19:23;;;;;;;182.30;64.65;;;7.90;99.90;;;;;;5096137;28;20028;-67
2021/11/14 00:21:48;;;;;;;187.48;67.55;;;7.90;99.90;;;;;;5095895;28;20498;-67
2021/11/14 00:24:16;;;;;;;205.57;73.03;;;7.90;99.90;;;;;;5095185;28;20034;-66
2021/11/14 00:26:41;;;;;;;222.98;70.65;;;7.90;99.90;;;;;;5096035;28;20024;-67
2021/11/14 00:29:08;;;;;;;199.95;67.88;;;7.90;99.90;;;;;;5094922;28;20394;-67
2021/11/14 00:31:34;;;;;;;224.70;73.40;;;7.90;99.90;;;;;;5095685;28;20038;-66
2021/11/14 00:34:01;;;;;;;194.75;66.82;;;7.90;99.90;;;;;;5095440;28;20028;-67
2021/11/14 00:36:30;;;;;;;194.75;67.95;;;7.90;99.90;;;;;;5095655;28;20452;-67
2021/11/14 00:38:57;;;;;;;182.73;69.60;;;7.90;99.90;;;;;;5094921;28;20490;-67
2021/11/14 00:41:24;;;;;;;189.18;66.57;;;7.90;99.90;;;;;;5095478;28;20052;-67
2021/11/14 00:43:50;;;;;;;195.38;70.90;;;7.90;99.90;;;;;;5095523;28;20024;-67
2021/11/14 00:46:16;;;;;;;187.93;68.63;;;7.80;99.90;;;;;;5095427;28;20494;-67
2021/11/14 00:48:43;;;;;;;186.10;66.10;;;7.80;99.90;;;;;;5077686;28;20036;-67
2021/11/14 00:51:14;;;;;;;182.82;64.90;;;7.80;99.90;;;;;;5095207;28;20028;-67
2021/11/14 00:53:40;;;;;;;189.68;65.07;;;7.80;99.90;;;;;;5094830;28;20384;-67
2021/11/14 00:56:06;;;;;;;165.27;61.08;;;7.90;99.90;;;;;;5095181;28;20024;-66
2021/11/14 00:58:32;;;;;;;182.88;70.20;;;7.80;99.90;;;;;;5095054;28;20031;-66
2021/11/14 01:00:58;;;;;;;173.63;65.60;;;7.90;99.90;;;;;;5095437;28;20020;-66
2021/11/14 01:03:24;;;;;;;175.40;67.05;;;7.80;99.90;;;;;;5095363;28;20046;-66
2021/11/14 01:05:50;;;;;;;181.00;66.72;;;7.80;99.90;;;;;;5094789;28;20077;-66
2021/11/14 01:08:17;;;;;;;177.45;68.43;;;7.70;99.90;;;;;;5095243;28;20382;-67
2021/11/14 01:10:52;;;;;;;166.77;66.35;;;7.70;99.90;;;;;;5094832;28;20085;-67
2021/11/14 01:13:18;;;;;;;169.98;64.97;;;7.80;99.90;;;;;;5095065;28;20099;-67
2021/11/14 01:15:45;;;;;;;171.07;66.43;;;7.70;99.90;;;;;;5094313;28;20085;-67
2021/11/14 01:18:13;;;;;;;173.15;67.05;;;7.70;99.90;;;;;;5094709;28;20024;-67
2021/11/14 01:20:41;;;;;;;178.38;67.57;;;7.70;99.90;;;;;;5094762;28;20024;-66
2021/11/14 01:23:08;;;;;;;175.05;67.10;;;7.70;99.90;;;;;;5094868;28;20429;-67
2021/11/14 01:25:34;;;;;;;168.60;66.00;;;7.70;99.90;;;;;;5094849;28;20103;-67
2021/11/14 01:28:00;;;;;;;169.85;65.78;;;7.70;99.90;;;;;;5094112;28;20074;-67
2021/11/14 01:30:29;;;;;;;176.18;65.65;;;7.80;99.90;;;;;;5094574;28;20425;-66
2021/11/14 01:32:56;;;;;;;166.77;66.88;;;7.80;99.90;;;;;;5094794;28;20021;-66
2021/11/14 01:35:22;;;;;;;166.45;64.95;;;7.70;99.90;;;;;;5118044;22;20044;-67
2021/11/14 01:37:50;;;;;;;180.75;68.60;;;7.70;99.90;;;;;;5093940;28;20371;-66
2021/11/14 01:40:22;;;;;;;155.27;61.53;;;7.70;99.90;;;;;;5093883;28;20429;-65
2021/11/14 01:42:49;;;;;;;160.23;64.78;;;7.70;99.90;;;;;;5093703;28;20023;-66
2021/11/14 01:45:16;;;;;;;173.13;69.63;;;7.80;99.90;;;;;;5094244;28;20396;-65
2021/11/14 01:47:41;;;;;;;162.32;63.63;;;7.70;99.90;;;;;;5094196;28;20479;-65
2021/11/14 01:50:10;;;;;;;158.52;62.78;;;7.70;99.90;;;;;;5093903;28;20032;-65
2021/11/14 01:52:35;;;;;;;162.98;65.80;;;7.70;99.90;;;;;;5094032;28;20497;-65
2021/11/14 01:55:01;;;;;;;175.38;69.25;;;7.70;99.90;;;;;;5094026;28;20028;-65
2021/11/14 01:57:28;;;;;;;153.20;64.13;;;7.70;99.90;;;;;;5094251;28;20407;-65
2021/11/14 01:59:54;;;;;;;168.57;66.95;;;7.80;99.90;;;;;;5094373;28;20020;-65
2021/11/14 02:02:20;;;;;;;185.38;68.35;;;7.70;99.90;;;;;;5093406;28;20024;-65
2021/11/14 02:04:46;;;;;;;164.68;67.65;;;7.70;99.90;;;;;;5093893;28;20012;-65
2021/11/14 02:07:14;;;;;;;159.90;62.75;;;7.80;99.90;;;;;;5093887;28;20556;-65
2021/11/14 02:09:40;;;;;;;173.05;67.00;;;7.70;99.90;;;;;;5094060;28;20085;-65
2021/11/14 02:12:06;;;;;;;162.75;64.30;;;7.70;99.90;;;;;;5093544;28;20035;-65
2021/11/14 02:14:32;;;;;;;168.40;67.28;;;7.70;99.90;;;;;;5093672;28;20028;-65
2021/11/14 02:16:59;;;;;;;171.07;68.82;;;7.70;99.90;;;;;;5093995;28;20055;-65
2021/11/14 02:19:24;;;;;;;161.65;66.28;;;7.70;99.90;;;;;;5075585;28;20020;-65
2021/11/14 02:21:52;;;;;;;172.52;68.35;;;7.70;99.90;;;;;;5093914;28;20023;-65
2021/11/14 02:24:19;;;;;;;164.52;63.47;;;7.70;99.90;;;;;;5093010;28;20028;-65
2021/11/14 02:26:45;;;;;;;176.20;65.90;;;7.70;99.90;;;;;;5093694;28;20020;-65
2021/11/14 02:29:11;;;;;;;155.65;64.53;;;7.70;99.90;;;;;;5093529;28;20046;-65
2021/11/14 02:31:36;;;;;;;161.75;67.63;;;7.60;99.90;;;;;;5093558;28;20542;-65
2021/11/14 02:34:02;;;;;;;176.45;68.93;;;7.60;99.90;;;;;;5093296;28;20523;-65
2021/11/14 02:36:28;;;;;;;170.73;66.70;;;7.60;99.90;;;;;;5093115;28;20483;-65
2021/11/14 02:38:54;;;;;;;163.48;63.45;;;7.60;99.90;;;;;;5093322;28;20107;-65
2021/11/14 02:41:23;;;;;;;162.45;66.60;;;7.50;99.90;;;;;;5093610;28;20435;-65
2021/11/14 02:43:51;;;;;;;168.02;67.05;;;7.50;99.90;;;;;;5093476;28;20024;-65
2021/11/14 02:46:17;;;;;;;178.60;67.85;;;7.60;99.90;;;;;;5093342;28;20023;-65
2021/11/14 02:48:44;;;;;;;184.43;69.88;;;7.60;99.90;;;;;;5093307;28;20028;-65
2021/11/14 02:51:18;;;;;;;194.90;70.65;;;7.60;99.90;;;;;;5092705;28;20020;-66
2021/11/14 02:53:44;;;;;;;191.15;71.13;;;7.60;99.90;;;;;;5093146;28;20024;-66
2021/11/14 02:56:10;;;;;;;184.90;70.03;;;7.60;99.90;;;;;;5093270;28;20032;-66
2021/11/14 02:58:37;;;;;;;191.20;71.05;;;7.70;99.90;;;;;;5093445;28;20024;-66
2021/11/14 03:01:10;;;;;;;190.60;70.32;;;7.70;99.90;;;;;;5093454;28;20025;-66
2021/11/14 03:03:37;;;;;;;189.05;71.30;;;7.70;99.90;;;;;;5093073;28;20020;-66
2021/11/14 03:06:04;;;;;;;190.75;69.18;;;7.80;99.90;;;;;;5093178;28;20027;-66
2021/11/14 03:08:30;;;;;;;201.40;73.85;;;7.80;99.90;;;;;;5093388;28;20025;-66
2021/11/14 03:10:56;;;;;;;194.50;68.95;;;7.80;99.90;;;;;;5093141;28;20024;-66
2021/11/14 03:13:23;;;;;;;197.48;69.55;;;7.80;99.90;;;;;;5093278;28;20028;-66
2021/11/14 03:15:52;;;;;;;190.27;71.78;;;7.80;99.90;;;;;;5092745;28;20030;-65
2021/11/14 03:18:19;;;;;;;194.82;72.07;;;7.90;99.90;;;;;;5093196;28;20024;-65
2021/11/14 03:20:47;;;;;;;186.45;68.65;;;7.80;99.90;;;;;;5093273;28;20028;-65
2021/11/14 03:23:14;;;;;;;188.10;67.68;;;7.90;99.90;;;;;;5092718;28;20020;-65
2021/11/14 03:25:41;;;;;;;210.80;75.78;;;7.90;99.90;;;;;;5092900;28;20111;-65
2021/11/14 03:28:07;;;;;;;196.25;71.97;;;7.80;99.90;;;;;;5093213;28;20020;-65
2021/11/14 03:30:34;;;;;;;222.57;75.95;;;7.90;99.90;;;;;;5092878;28;20495;-65
2021/11/14 03:33:02;;;;;;;199.35;70.30;;;7.90;99.90;;;;;;5092369;28;20028;-65
2021/11/14 03:35:42;;;;;;;209.48;73.38;;;7.90;99.90;;;;;;5092727;28;20126;-65
2021/11/14 03:38:11;;;;;;;191.65;72.30;;;7.90;99.90;;;;;;5093108;28;20020;-65
2021/11/14 03:40:40;;;;;;;224.05;75.43;;;7.90;99.90;;;;;;5092823;28;20020;-65
2021/11/14 03:43:06;;;;;;;213.43;72.20;;;7.80;99.90;;;;;;5092241;28;20031;-65
2021/11/14 03:45:32;;;;;;;222.55;72.28;;;7.90;99.90;;;;;;5092978;28;20031;-65
2021/11/14 03:47:58;;;;;;;209.65;73.68;;;7.90;99.90;;;;;;5092782;28;20391;-65
2021/11/14 03:50:24;;;;;;;193.15;68.47;;;7.90;99.90;;;;;;5093081;28;20016;-65
2021/11/14 03:52:50;;;;;;;218.93;72.95;;;7.90;99.90;;;;;;5092729;28;20437;-65
2021/11/14 03:55:16;;;;;;;202.10;69.45;;;7.90;99.90;;;;;;5092467;28;20024;-65
2021/11/14 03:57:44;;;;;;;213.32;71.70;;;7.90;99.90;;;;;;5092873;28;20467;-65
2021/11/14 04:00:17;;;;;;;204.90;71.20;;;7.90;99.90;;;;;;5092803;28;20100;-65
2021/11/14 04:02:44;;;;;;;210.93;69.28;;;8.00;99.90;;;;;;5092603;28;20079;-65
2021/11/14 04:05:10;;;;;;;204.77;70.95;;;8.00;99.90;;;;;;5094677;28;20032;-65
2021/11/14 04:07:35;;;;;;;182.02;63.78;;;7.90;99.90;;;;;;5096498;28;20383;-65
2021/11/14 04:10:02;;;;;;;196.40;66.00;;;7.90;99.90;;;;;;5095850;28;20024;-65
2021/11/14 04:12:28;;;;;;;201.73;68.82;;;8.00;99.90;;;;;;5096081;28;20028;-65
2021/11/14 04:14:53;;;;;;;206.77;72.03;;;7.90;99.90;;;;;;5095965;28;20034;-65
2021/11/14 04:17:19;;;;;;;209.88;74.03;;;8.00;99.90;;;;;;5080595;28;20109;-65
2021/11/14 04:19:44;;;;;;;197.38;65.75;;;8.00;99.90;;;;;;5075649;28;20035;-65
2021/11/14 04:22:10;;;;;;;204.70;68.50;;;8.00;99.90;;;;;;5075959;28;20104;-65
2021/11/14 04:24:35;;;;;;;192.30;68.70;;;8.00;99.90;;;;;;5074971;28;20109;-65
2021/11/14 04:27:01;;;;;;;180.95;64.03;;;7.90;99.90;;;;;;5091184;28;20028;-65
2021/11/14 04:29:27;;;;;;;190.30;67.93;;;7.90;99.90;;;;;;5095776;28;20030;-65
2021/11/14 04:31:52;;;;;;;210.40;70.43;;;8.00;99.90;;;;;;5095749;28;20401;-65
2021/11/14 04:34:18;;;;;;;208.40;69.85;;;8.00;99.90;;;;;;5095455;28;20101;-65
2021/11/14 04:36:43;;;;;;;207.60;67.65;;;8.00;99.90;;;;;;5095324;28;20028;-65
2021/11/14 04:39:09;;;;;;;191.55;66.50;;;8.00;99.90;;;;;;5095536;28;20505;-65
2021/11/14 04:41:34;;;;;;;185.27;65.78;;;8.00;99.90;;;;;;5095488;28;20510;-65
2021/11/14 04:44:00;;;;;;;206.90;70.57;;;8.00;99.90;;;;;;5095433;28;20522;-65
2021/11/14 04:46:26;;;;;;;200.85;70.18;;;8.10;99.90;;;;;;5095464;28;20027;-65
2021/11/14 04:48:52;;;;;;;222.57;73.50;;;8.00;99.90;;;;;;5095413;28;20028;-65
2021/11/14 04:51:17;;;;;;;204.57;69.72;;;8.10;99.90;;;;;;5094755;28;20054;-65
2021/11/14 04:53:43;;;;;;;204.07;67.47;;;8.10;99.90;;;;;;5095532;28;20074;-65
2021/11/14 04:56:08;;;;;;;217.93;72.90;;;8.00;99.90;;;;;;5095529;28;20387;-65
2021/11/14 04:58:34;;;;;;;202.25;69.95;;;8.10;99.90;;;;;;5094949;28;20039;-65
2021/11/14 05:01:00;;;;;;;200.50;67.28;;;8.10;99.90;;;;;;5095192;28;20024;-65
2021/11/14 05:03:25;;;;;;;197.23;67.40;;;8.10;99.90;;;;;;5094512;28;20605;-65
2021/11/14 05:05:56;;;;;;;178.10;62.13;;;8.10;99.90;;;;;;5095344;28;20028;-65
2021/11/14 05:08:21;;;;;;;184.73;65.97;;;8.00;99.90;;;;;;5094936;28;20471;-65
2021/11/14 05:10:49;;;;;;;184.65;63.70;;;8.00;99.90;;;;;;5094967;28;20043;-65
2021/11/14 05:13:15;;;;;;;191.50;63.38;;;8.10;99.90;;;;;;5095062;28;20425;-65
2021/11/14 05:15:40;;;;;;;186.63;67.63;;;8.00;99.90;;;;;;5093916;28;20024;-65
2021/11/14 05:18:06;;;;;;;171.15;63.42;;;8.00;99.90;;;;;;5094849;28;20028;-65
2021/11/14 05:20:32;;;;;;;176.77;65.78;;;8.00;99.90;;;;;;5094637;28;20069;-65
2021/11/14 05:22:58;;;;;;;177.95;63.03;;;8.00;99.90;;;;;;5095019;28;20099;-65
2021/11/14 05:25:23;;;;;;;198.02;66.35;;;8.00;99.90;;;;;;5094135;28;20111;-65
2021/11/14 05:27:49;;;;;;;182.60;65.20;;;8.00;99.90;;;;;;5094649;28;20031;-65
2021/11/14 05:30:14;;;;;;;188.43;67.55;;;8.00;99.90;;;;;;5094569;28;20028;-65
2021/11/14 05:32:40;;;;;;;184.30;65.85;;;8.00;99.90;;;;;;5094572;28;20040;-65
2021/11/14 05:35:08;;;;;;;188.38;67.72;;;8.00;99.90;;;;;;5093787;28;20052;-65
2021/11/14 05:37:33;;;;;;;175.73;63.95;;;8.00;99.90;;;;;;5094447;28;20024;-65
2021/11/14 05:39:59;;;;;;;185.77;61.75;;;8.00;99.90;;;;;;5094143;28;20031;-65
2021/11/14 05:42:24;;;;;;;192.20;65.50;;;8.00;99.90;;;;;;5094393;28;20387;-65
2021/11/14 05:44:50;;;;;;;180.77;65.35;;;8.00;99.90;;;;;;5094276;28;20047;-65
2021/11/14 05:47:16;;;;;;;193.48;66.53;;;8.00;99.90;;;;;;5094328;28;20099;-65
2021/11/14 05:49:42;;;;;;;198.82;65.10;;;8.00;99.90;;;;;;5094191;28;20391;-65
2021/11/14 05:52:07;;;;;;;202.32;66.68;;;8.00;99.90;;;;;;5094158;28;20039;-65
2021/11/14 05:54:33;;;;;;;193.40;65.45;;;8.00;99.90;;;;;;5094054;28;20024;-65
2021/11/14 05:56:59;;;;;;;178.57;62.58;;;7.90;99.90;;;;;;5093868;28;20111;-65
2021/11/14 06:07:16;;;;;;;211.80;66.05;;;7.90;99.90;;;;;;5094248;28;20082;-65
2021/11/14 06:09:42;;;;;;;183.98;62.95;;;7.90;99.90;;;;;;5093874;28;20113;-65
2021/11/14 06:12:08;;;;;;;196.32;63.42;;;7.90;99.90;;;;;;5093495;28;20024;-65
2021/11/14 06:14:34;;;;;;;182.63;60.45;;;7.90;99.90;;;;;;5093656;28;20055;-65
2021/11/14 06:17:00;;;;;;;190.23;63.10;;;7.90;99.90;;;;;;5093770;28;20028;-65
2021/11/14 06:19:26;;;;;;;183.93;60.63;;;7.90;99.90;;;;;;5093884;28;20030;-65
2021/11/14 06:21:52;;;;;;;177.52;62.60;;;7.90;99.90;;;;;;5093519;28;20020;-65
2021/11/14 06:24:18;;;;;;;194.70;62.97;;;7.90;99.90;;;;;;5093834;28;20450;-65
2021/11/14 06:26:44;;;;;;;172.02;59.05;;;7.90;99.90;;;;;;5092568;28;20108;-65
2021/11/14 06:29:10;;;;;;;183.02;63.45;;;7.90;99.90;;;;;;5093681;28;20038;-65
2021/11/14 06:31:36;;;;;;;168.95;60.45;;;7.90;99.90;;;;;;5093565;28;20103;-65
2021/11/14 06:34:02;;;;;;;177.98;58.35;;;7.90;99.90;;;;;;5093422;28;20040;-65
2021/11/14 06:36:28;;;;;;;172.32;59.95;;;7.90;99.90;;;;;;5093457;28;20089;-65
2021/11/14 06:38:53;;;;;;;182.65;58.95;;;8.00;99.90;;;;;;5093615;28;20084;-65
2021/11/14 06:41:19;;;;;;;181.40;61.17;;;7.90;99.90;;;;;;5092892;28;20024;-65
2021/11/14 06:43:44;;;;;;;188.68;61.03;;;7.90;99.90;;;;;;5093338;28;20463;-65
2021/11/14 06:46:11;;;;;;;206.65;63.03;;;8.00;99.90;;;;;;5093601;28;20024;-65
2021/11/14 06:48:36;;;;;;;195.27;65.63;;;7.90;99.90;;;;;;5093570;28;20020;-66
2021/11/14 06:51:02;;;;;;;173.00;60.35;;;8.00;99.90;;;;;;5092749;28;20402;-65
2021/11/14 06:53:28;;;;;;;168.13;57.10;;;7.90;99.90;;;;;;5093244;28;20555;-65
2021/11/14 06:55:53;;;;;;;168.93;59.80;;;7.90;99.90;;;;;;5093257;28;20536;-65
2021/11/14 06:58:19;;;;;;;170.98;60.88;;;7.90;99.90;;;;;;5093422;28;20433;-65
2021/11/14 07:00:45;;;;;;;186.30;65.63;;;8.00;99.90;;;;;;5092882;28;20028;-65
2021/11/14 07:03:12;;;;;;;184.77;62.25;;;8.00;99.90;;;;;;5093209;28;20042;-65
2021/11/14 07:05:38;;;;;;;158.40;56.25;;;8.00;99.90;;;;;;5093328;28;20024;-65
2021/11/14 07:08:03;;;;;;;184.80;64.85;;;8.00;99.90;;;;;;5093146;28;20043;-65
2021/11/14 07:10:29;;;;;;;161.45;56.78;;;8.00;99.90;;;;;;5092094;28;20036;-65
2021/11/14 07:12:55;;;;;;;193.00;65.75;;;8.00;99.90;;;;;;5093184;28;20051;-65
2021/11/14 07:15:21;;;;;;;182.55;60.03;;;8.00;99.90;;;;;;5093274;28;20028;-65
2021/11/14 07:17:47;;;;;;;183.45;62.15;;;8.00;99.90;;;;;;5093278;28;20039;-65
2021/11/14 07:20:15;;;;;;;181.57;60.40;;;8.00;99.90;;;;;;5092668;28;20028;-65
2021/11/14 07:22:40;;;;;;;176.40;62.13;;;8.00;99.90;;;;;;5092987;28;20061;-65
2021/11/14 07:25:07;;;;;;;174.50;61.50;;;8.10;99.90;;;;;;5093169;28;20107;-65
2021/11/14 07:27:33;;;;;;;174.70;61.28;;;8.10;99.90;;;;;;5093167;28;20028;-65
2021/11/14 07:29:59;;;;;;;164.48;59.33;;;8.10;99.90;;;;;;5092397;28;20024;-65
2021/11/14 07:32:24;;;;;;;166.38;58.40;;;8.10;99.90;;;;;;5092868;28;20498;-66
2021/11/14 07:34:50;;;;;;;180.95;61.35;;;8.10;99.90;;;;;;5124907;22;20040;-73
2021/11/14 07:37:16;;;;;;;161.25;57.42;;;8.10;99.90;;;;;;5113344;28;20024;-73
2021/11/14 07:39:41;;;;;;;176.50;59.80;;;8.10;99.90;;;;;;5116066;28;20028;-73
2021/11/14 07:42:07;;;;;;;176.60;60.83;;;8.10;99.90;;;;;;5117060;28;20035;-73
2021/11/14 07:44:33;;;;;;;171.60;58.85;;;8.10;99.90;;;;;;5116466;28;20090;-74
2021/11/14 07:46:58;;;;;;;173.50;57.25;;;8.10;99.90;;;;;;5116833;28;20039;-73
2021/11/14 07:49:24;;;;;;;151.35;54.00;;;8.10;99.90;;;;;;5116978;28;20027;-74
2021/11/14 07:51:49;;;;;;;163.65;55.65;;;8.20;99.90;;;;;;5116927;28;20475;-73
2021/11/14 07:54:15;;;;;;;164.98;57.10;;;8.20;99.90;;;;;;5116789;28;20355;-73
2021/11/14 07:56:41;;;;;;;152.23;54.78;;;8.20;99.90;;;;;;5097978;28;20024;-73
2021/11/14 07:59:06;;;;;;;158.02;56.50;;;8.20;99.90;;;;;;5116727;28;20028;-73
2021/11/14 08:01:32;;;;;;;163.65;58.97;;;8.20;99.90;;;;;;5116728;28;20100;-73
2021/11/14 08:03:57;;;;;;;159.85;56.70;;;8.20;99.90;;;;;;5116116;28;20054;-73
2021/11/14 08:06:23;;;;;;;158.70;54.42;;;8.20;99.90;;;;;;5116665;28;20152;-73
2021/11/14 08:08:49;;;;;;;161.68;55.97;;;8.20;99.90;;;;;;5116882;28;20020;-74
2021/11/14 08:11:15;;;;;;;151.93;54.08;;;8.30;99.90;;;;;;5116515;28;20042;-73
2021/11/14 08:13:41;;;;;;;155.35;55.80;;;8.30;99.90;;;;;;5116547;28;20490;-73
2021/11/14 08:16:06;;;;;;;158.45;60.30;;;8.30;99.90;;;;;;5115772;28;20070;-73
2021/11/14 08:18:32;;;;;;;150.43;56.50;;;8.30;99.90;;;;;;5116318;28;20030;-73
2021/11/14 08:20:58;;;;;;;136.10;51.83;;;8.40;99.90;;;;;;5116624;28;20105;-73
2021/11/14 08:23:24;;;;;;;147.25;54.42;;;8.40;99.90;;;;;;5116628;28;20012;-73
2021/11/14 08:25:50;;;;;;;132.07;52.33;;;8.40;99.90;;;;;;5116201;28;20020;-73
2021/11/14 08:28:16;;;;;;;137.88;52.47;;;8.40;99.90;;;;;;5116191;28;20011;-73
2021/11/14 08:30:43;;;;;;;136.77;53.42;;;8.40;99.90;;;;;;5115705;28;20024;-73
2021/11/14 08:33:10;;;;;;;144.25;53.83;;;8.40;99.90;;;;;;5116102;28;20102;-74
2021/11/14 08:35:36;;;;;;;144.02;50.50;;;8.50;99.90;;;;;;5115728;28;20077;-74
2021/11/14 08:38:03;;;;;;;142.05;52.08;;;8.50;99.90;;;;;;5097414;28;20023;-73
2021/11/14 08:40:30;;;;;;;139.73;53.53;;;8.50;99.90;;;;;;5097138;28;20497;-73
2021/11/14 08:42:57;;;;;;;126.03;49.83;;;8.50;99.90;;;;;;5116799;28;20366;-73
2021/11/14 08:45:24;;;;;;;124.72;47.60;;;8.50;99.90;;;;;;5097385;28;20020;-74
2021/11/14 08:47:50;;;;;;;137.48;50.10;;;8.60;99.90;;;;;;5115884;28;20019;-74
2021/11/14 08:50:16;;;;;;;129.02;47.90;;;8.70;99.90;;;;;;5114796;28;20019;-73
2021/11/14 08:52:45;;;;;;;141.35;51.03;;;8.70;99.90;;;;;;5115781;28;20093;-73
2021/11/14 08:55:20;;;;;;;127.38;48.58;;;8.80;99.90;;;;;;5115635;28;20024;-74
2021/11/14 08:57:47;;;;;;;133.98;47.42;;;8.80;99.90;;;;;;5115942;28;20027;-74
2021/11/14 09:00:15;;;;;;;122.22;48.67;;;8.90;99.90;;;;;;5115559;28;20031;-74
2021/11/14 09:02:42;;;;;;;115.53;46.67;;;8.90;99.90;;;;;;5115687;28;20020;-74
2021/11/14 09:05:08;;;;;;;120.07;47.70;;;9.00;99.90;;;;;;5096811;28;20558;-73
2021/11/14 09:07:33;;;;;;;117.47;48.38;;;9.00;99.90;;;;;;5115757;28;20020;-74
2021/11/14 09:09:59;;;;;;;106.75;46.35;;;9.00;99.90;;;;;;5115708;28;20528;-74
2021/11/14 09:12:25;;;;;;;118.00;46.78;;;9.10;99.90;;;;;;5096561;28;20024;-73
2021/11/14 09:14:51;;;;;;;116.18;45.72;;;9.10;99.90;;;;;;5115253;28;20428;-73
2021/11/14 09:17:18;;;;;;;104.43;42.30;;;9.10;99.90;;;;;;5115311;28;20047;-73
2021/11/14 09:19:43;;;;;;;112.72;45.22;;;9.20;99.90;;;;;;5115170;28;20066;-73
2021/11/14 09:22:10;;;;;;;119.03;45.40;;;9.30;99.90;;;;;;5115175;28;20019;-74
2021/11/14 09:24:35;;;;;;;115.05;44.28;;;9.30;99.90;;;;;;5096655;28;20058;-73
2021/11/14 09:27:04;;;;;;;102.95;42.50;;;9.30;99.90;;;;;;5096858;28;20070;-73
2021/11/14 09:29:30;;;;;;;106.32;42.17;;;9.30;99.90;;;;;;5115028;28;20023;-74
2021/11/14 09:31:55;;;;;;;114.35;44.75;;;9.30;99.90;;;;;;5114569;28;20024;-73
2021/11/14 09:34:21;;;;;;;104.95;42.13;;;9.30;99.90;;;;;;5114781;28;20023;-74
2021/11/14 09:36:47;;;;;;;105.70;42.35;;;9.30;99.90;;;;;;5114898;28;20503;-74
2021/11/14 09:39:14;;;;;;;103.20;43.40;;;9.30;99.90;;;;;;5096467;28;20032;-74
2021/11/14 09:41:46;;;;;;;105.13;41.20;;;9.40;99.90;;;;;;5114795;28;20024;-74
2021/11/14 09:44:15;;;;;;;105.78;40.45;;;9.40;99.90;;;;;;5114951;28;20072;-74
2021/11/14 09:46:50;;;;;;;102.20;38.92;;;9.40;99.90;;;;;;5114825;28;20026;-74
2021/11/14 09:49:16;;;;;;;105.93;41.88;;;9.40;99.90;;;;;;5114685;28;20024;-74
2021/11/14 09:51:43;;;;;;;107.88;42.20;;;9.50;99.90;;;;;;5114599;28;20024;-74
2021/11/14 09:54:09;;;;;;;100.50;39.63;;;9.50;99.90;;;;;;5114495;28;20035;-74
2021/11/14 09:56:36;;;;;;;107.22;42.33;;;9.50;99.90;;;;;;5113960;28;20020;-73
2021/11/14 09:59:01;;;;;;;99.90;41.05;;;9.50;99.90;;;;;;5114661;28;20059;-73
2021/11/14 10:01:27;;;;;;;98.30;37.40;;;9.50;99.90;;;;;;5113945;28;20050;-74
2021/11/14 10:03:52;;;;;;;93.57;38.78;;;9.60;99.90;;;;;;5113885;28;20386;-74
2021/11/14 10:06:26;;;;;;;86.00;38.78;;;9.60;99.90;;;;;;5114322;28;20474;-74
2021/11/14 10:08:51;;;;;;;;;;;9.60;99.90;;;;;;5095925;28;20020;-73
2021/11/14 10:11:17;;;;;;;91.00;36.80;;;9.70;99.90;;;;;;5114270;28;19903;-73
2021/11/14 10:13:49;;;;;;;85.70;37.08;;;9.60;99.90;;;;;;5114206;28;20027;-74
2021/11/14 10:16:18;;;;;;;82.40;35.78;;;9.70;99.90;;;;;;5109495;28;20028;-75
2021/11/14 10:18:52;;;;;;;88.95;36.47;;;9.80;99.90;;;;;;5100582;28;20509;-76
2021/11/14 10:21:20;;;;;;;93.25;36.30;;;9.90;99.90;;;;;;5080478;28;20047;-74
2021/11/14 10:23:46;;;;;;;80.93;34.22;;;9.90;99.90;;;;;;5103660;28;20519;-74
2021/11/14 10:26:12;;;;;;;77.18;33.47;;;9.90;99.90;;;;;;5099822;28;20055;-75
2021/11/14 10:28:47;;;;;;;78.95;32.30;;;9.90;99.90;;;;;;5091521;28;20111;-76
2021/11/14 10:31:19;;;;;;;71.32;31.58;;;9.80;99.90;;;;;;5102841;28;20079;-73
2021/11/14 10:33:45;;;;;;;59.25;28.20;;;9.90;99.90;;;;;;5102347;28;20028;-74
2021/11/14 10:36:10;;;;;;;70.22;29.80;;;9.90;99.90;;;;;;5102914;28;20031;-74
2021/11/14 10:38:38;;;;;;;61.28;27.08;;;9.90;99.90;;;;;;5107115;28;20027;-74
2021/11/14 10:41:07;;;;;;;57.53;26.40;;;9.90;99.90;;;;;;5094808;28;20536;-74
2021/11/14 10:43:37;;;;;;;53.67;25.95;;;9.90;99.90;;;;;;5093391;28;20024;-75
2021/11/14 10:46:04;;;;;;;60.13;25.95;;;9.90;99.90;;;;;;5083903;28;20028;-73
2021/11/14 10:48:33;;;;;;;52.72;24.75;;;9.80;99.90;;;;;;5099899;28;20073;-74
2021/11/14 10:51:01;;;;;;;61.88;26.80;;;9.80;99.90;;;;;;5093284;28;20028;-74
2021/11/14 10:53:30;;;;;;;54.40;27.02;;;9.80;99.90;;;;;;5092712;28;20107;-74
2021/11/14 10:56:07;;;;;;;56.60;26.48;;;9.80;99.90;;;;;;5093169;28;20475;-74
2021/11/14 10:58:33;;;;;;;59.55;26.02;;;9.80;99.90;;;;;;5093261;28;20487;-74
2021/11/14 11:01:19;;;;;;;58.85;24.88;;;9.80;99.90;;;;;;5092634;28;20024;-73
2021/11/14 11:03:48;;;;;;;51.05;23.77;;;9.80;99.90;;;;;;5093091;28;20036;-74
2021/11/14 11:06:23;;;;;;;58.83;26.73;;;9.90;99.90;;;;;;5075319;28;20431;-74
2021/11/14 11:08:49;;;;;;;54.85;24.42;;;9.90;99.90;;;;;;5093321;28;20020;-73
2021/11/14 11:11:20;;;;;;;53.05;23.63;;;9.90;99.90;;;;;;5092778;28;20394;-74
2021/11/14 11:13:47;;;;;;;49.38;23.67;;;9.80;99.90;;;;;;5076402;28;20039;-74
2021/11/14 11:16:20;;;;;;;51.22;24.10;;;9.80;99.90;;;;;;5097525;28;20049;-75
2021/11/14 11:18:56;;;;;;;46.88;24.25;;;9.80;99.90;;;;;;5096588;28;20395;-75
2021/11/14 11:21:21;;;;;;;47.20;21.17;;;9.80;99.90;;;;;;5102778;28;20055;-73
2021/11/14 11:23:47;;;;;;;37.88;19.73;;;9.70;99.90;;;;;;5110307;28;20493;-73
2021/11/14 11:26:15;;;;;;;36.22;18.90;;;9.70;99.90;;;;;;5102719;28;20510;-73
2021/11/14 11:28:44;;;;;;;42.53;17.92;;;9.60;99.90;;;;;;5105272;28;20031;-73
2021/11/14 11:31:15;;;;;;;40.00;18.10;;;9.60;99.90;;;;;;5106235;28;20027;-73
2021/11/14 11:33:47;;;;;;;42.35;18.17;;;9.60;99.90;;;;;;5106772;28;20025;-73
2021/11/14 11:36:15;;;;;;;34.45;17.70;;;9.60;99.90;;;;;;5083945;28;20491;-73
2021/11/14 11:38:44;;;;;;;37.38;18.77;;;9.60;99.90;;;;;;5100963;28;20052;-72
2021/11/14 11:41:11;;;;;;;42.63;18.77;;;9.60;99.90;;;;;;5095206;28;20112;-73
2021/11/14 11:43:37;;;;;;;39.33;17.20;;;9.60;99.90;;;;;;5105368;28;20601;-73
2021/11/14 11:46:07;;;;;;;31.77;16.63;;;9.60;99.90;;;;;;5105502;28;20023;-73
2021/11/14 11:48:46;;;;;;;33.17;17.15;;;9.60;99.90;;;;;;5109542;28;20386;-73
2021/11/14 11:51:27;;;;;;;34.80;18.60;;;9.50;99.90;;;;;;5104863;28;20031;-73
2021/11/14 11:54:11;;;;;;;38.80;17.60;;;9.50;99.90;;;;;;5102719;28;20027;-73
2021/11/14 11:56:48;;;;;;;30.10;15.80;;;9.50;99.90;;;;;;5102426;28;20028;-73
2021/11/14 11:59:27;;;;;;;32.22;17.10;;;9.50;99.90;;;;;;5103978;28;20084;-72
2021/11/14 12:02:03;;;;;;;38.85;18.05;;;9.50;99.90;;;;;;5105635;28;20062;-73
2021/11/14 12:04:35;;;;;;;38.90;19.65;;;9.40;99.90;;;;;;5104630;28;20024;-73
2021/11/14 12:07:05;;;;;;;37.97;19.30;;;9.40;99.90;;;;;;5093818;28;20105;-73
2021/11/14 12:09:49;;;;;;;33.80;17.77;;;9.40;99.90;;;;;;5107338;28;20494;-73
2021/11/14 12:12:22;;;;;;;42.90;20.08;;;9.40;99.90;;;;;;5104730;28;20031;-73
2021/11/14 12:15:10;;;;;;;41.45;19.35;;;9.40;99.90;;;;;;5102357;28;20517;-73
2021/11/14 12:17:37;;;;;;;44.72;20.52;;;9.40;99.90;;;;;;5102340;28;20153;-73
2021/11/14 12:20:09;;;;;;;49.38;24.25;;;9.30;99.90;;;;;;5095646;28;20020;-74
2021/11/14 12:22:57;;;;;;;48.55;21.55;;;9.40;99.90;;;;;;5105015;28;20021;-73
2021/11/14 12:25:34;;;;;;;51.22;22.98;;;9.30;99.90;;;;;;5103673;28;20114;-73
2021/11/14 12:28:03;;;;;;;56.97;25.75;;;9.30;99.90;;;;;;5081999;28;20501;-73
2021/11/14 12:30:30;;;;;;;58.75;25.52;;;9.30;99.90;;;;;;5105772;28;20027;-73
2021/11/14 12:32:56;;;;;;;61.05;27.55;;;9.30;99.90;;;;;;5101975;28;20038;-73
2021/11/14 12:35:26;;;;;;;67.15;28.20;;;9.30;99.90;;;;;;5102598;28;20032;-73
2021/11/14 12:38:03;;;;;;;79.22;33.63;;;9.30;99.90;;;;;;5106106;28;20472;-73